Time;durP1;ratioP1;P1;durP2;ratioP2;P2;SDS_P1;SDS_P2;PMS_P1;PMS_P2;Temp;Humidity;BMP_temperature;BMP_pressure;BME280_temperature;BME280_humidity;BME280_pressure;Samples;Min_cycle;Max_cycle;Signal;HPM_P1;HPM_P2
2021/12/20 00:01:39;;;;;;;28.02;5.15;;;2.30;99.90;;;;;;5067308;28;20028;-43
2021/12/20 00:04:04;;;;;;;33.05;6.82;;;2.30;99.90;;;;;;5069951;28;20074;-42
2021/12/20 00:06:30;;;;;;;45.33;8.48;;;2.30;99.90;;;;;;5074947;28;20473;-43
2021/12/20 00:08:55;;;;;;;34.95;7.13;;;2.20;99.90;;;;;;5068673;28;20079;-43
2021/12/20 00:11:21;;;;;;;28.65;6.95;;;2.20;99.90;;;;;;5072858;28;20047;-43
2021/12/20 00:13:46;;;;;;;31.75;6.25;;;2.20;99.90;;;;;;5069170;28;20278;-43
2021/12/20 00:16:12;;;;;;;46.50;6.63;;;2.20;99.90;;;;;;5078999;28;20024;-43
2021/12/20 00:18:37;;;;;;;24.92;5.97;;;2.20;99.90;;;;;;5069818;28;20377;-43
2021/12/20 00:21:03;;;;;;;24.30;5.78;;;2.20;99.90;;;;;;5078035;28;20024;-43
2021/12/20 00:23:29;;;;;;;28.98;6.40;;;2.10;99.90;;;;;;5083734;28;20024;-44
2021/12/20 00:25:55;;;;;;;22.08;4.80;;;2.10;99.90;;;;;;5083350;28;20052;-44
2021/12/20 00:28:21;;;;;;;40.13;7.85;;;2.10;99.90;;;;;;5081329;28;20020;-44
2021/12/20 00:30:47;;;;;;;34.38;6.43;;;2.10;99.90;;;;;;5085294;28;20092;-43
2021/12/20 00:33:13;;;;;;;35.25;5.80;;;2.10;99.90;;;;;;5081730;28;20306;-44
2021/12/20 00:35:40;;;;;;;35.75;6.10;;;2.10;99.90;;;;;;5086674;28;20400;-44
2021/12/20 00:40:50;;;;;;;37.28;6.97;;;2.00;99.90;;;;;;5081392;28;20051;-43
2021/12/20 00:43:16;;;;;;;27.70;7.55;;;2.00;99.90;;;;;;5081322;28;20497;-44
2021/12/20 00:45:41;;;;;;;28.70;6.28;;;1.90;99.90;;;;;;5082573;28;20261;-43
2021/12/20 00:48:08;;;;;;;27.58;6.18;;;1.90;99.90;;;;;;5079383;28;20025;-42
2021/12/20 00:50:35;;;;;;;37.15;6.20;;;1.90;99.90;;;;;;5084472;28;20083;-44
2021/12/20 00:53:00;;;;;;;44.05;8.07;;;1.80;99.90;;;;;;5078521;28;20016;-43
2021/12/20 00:55:28;;;;;;;30.88;6.93;;;1.80;99.90;;;;;;5085960;28;20125;-43
2021/12/20 00:57:56;;;;;;;30.95;6.68;;;1.70;99.90;;;;;;5076913;28;20017;-43
2021/12/20 01:00:24;;;;;;;31.65;5.95;;;1.70;99.90;;;;;;5086284;28;20028;-42
2021/12/20 01:02:51;;;;;;;42.33;8.38;;;1.80;99.90;;;;;;5093565;28;20128;-42
2021/12/20 01:05:17;;;;;;;30.00;5.93;;;1.70;99.90;;;;;;5049414;28;20028;-43
2021/12/20 01:07:43;;;;;;;32.00;5.85;;;1.70;99.90;;;;;;5077149;28;20036;-42
2021/12/20 01:10:09;;;;;;;34.33;4.95;;;1.60;99.90;;;;;;5088378;28;20028;-43
2021/12/20 01:12:50;;;;;;;23.15;5.32;;;1.60;99.90;;;;;;5079217;28;20021;-43
2021/12/20 01:15:27;;;;;;;;;;;1.60;99.90;;;;;;5089015;28;20023;-43
2021/12/20 01:17:53;;;;;;;31.02;5.68;;;1.50;99.90;;;;;;5079746;28;20455;-42
2021/12/20 01:20:19;;;;;;;30.10;5.20;;;1.50;99.90;;;;;;5080756;28;20024;-45
2021/12/20 01:22:47;;;;;;;36.10;6.22;;;1.50;99.90;;;;;;5089630;28;20499;-43
2021/12/20 01:25:13;;;;;;;33.95;6.32;;;1.50;99.90;;;;;;5077274;28;20226;-43
2021/12/20 01:27:39;;;;;;;39.08;7.55;;;1.50;99.90;;;;;;5083543;28;20027;-45
2021/12/20 01:30:07;;;;;;;29.58;6.40;;;1.50;99.90;;;;;;5077400;28;20020;-43
2021/12/20 01:32:32;;;;;;;32.97;7.18;;;1.50;99.90;;;;;;5068830;28;20024;-42
2021/12/20 01:34:58;;;;;;;18.10;4.65;;;1.40;99.90;;;;;;5076298;28;20027;-44
2021/12/20 01:37:24;;;;;;;27.38;5.15;;;1.40;99.90;;;;;;5081085;28;20074;-43
2021/12/20 01:39:49;;;;;;;23.55;5.20;;;1.40;99.90;;;;;;5087570;28;20512;-43
2021/12/20 01:42:19;;;;;;;22.88;4.93;;;1.40;99.90;;;;;;5080302;28;20020;-43
2021/12/20 01:44:46;;;;;;;28.77;6.32;;;1.40;99.90;;;;;;5087841;28;20307;-43
2021/12/20 01:47:13;;;;;;;32.42;5.40;;;1.30;99.90;;;;;;5078981;28;20032;-43
2021/12/20 01:49:52;;;;;;;25.17;5.05;;;1.30;99.90;;;;;;5088766;28;20109;-44
2021/12/20 01:52:20;;;;;;;22.67;4.60;;;1.30;99.90;;;;;;5075982;28;20028;-43
2021/12/20 01:54:46;;;;;;;18.55;4.13;;;1.30;99.90;;;;;;5084545;28;20036;-43
2021/12/20 01:57:12;;;;;;;24.25;4.93;;;1.30;99.90;;;;;;5080303;28;20027;-43
2021/12/20 01:59:42;;;;;;;26.40;6.03;;;1.30;99.90;;;;;;5079152;28;20122;-43
2021/12/20 02:02:07;;;;;;;27.65;4.32;;;1.30;99.90;;;;;;5081024;28;20032;-43
2021/12/20 02:04:43;;;;;;;33.42;5.72;;;1.30;99.90;;;;;;5080200;28;20024;-43
2021/12/20 02:07:09;;;;;;;29.75;6.22;;;1.20;99.90;;;;;;5088298;28;20032;-43
2021/12/20 02:09:34;;;;;;;39.33;6.03;;;1.20;99.90;;;;;;5088078;28;20028;-43
2021/12/20 02:12:00;;;;;;;21.45;6.25;;;1.20;99.90;;;;;;5088415;28;20024;-42
2021/12/20 02:14:26;;;;;;;31.73;5.32;;;1.20;99.90;;;;;;5075976;28;20021;-42
2021/12/20 02:16:51;;;;;;;16.83;4.35;;;1.30;99.90;;;;;;5084576;28;20389;-42
2021/12/20 02:19:18;;;;;;;20.70;4.38;;;1.20;99.90;;;;;;5083466;28;20378;-43
2021/12/20 02:21:45;;;;;;;21.63;5.15;;;1.20;99.90;;;;;;5076682;28;20037;-43
2021/12/20 02:24:12;;;;;;;27.23;5.85;;;1.20;99.90;;;;;;5087182;28;20063;-43
2021/12/20 02:26:38;;;;;;;28.05;5.30;;;1.20;99.90;;;;;;5076968;28;20064;-43
2021/12/20 02:29:07;;;;;;;25.55;6.05;;;1.20;99.90;;;;;;5081099;28;20048;-42
2021/12/20 02:39:48;;;;;;;28.95;8.55;;;1.20;99.90;;;;;;5052791;28;20400;-43
2021/12/20 02:42:18;;;;;;;18.15;5.85;;;1.20;99.90;;;;;;5076092;28;20024;-42
2021/12/20 02:44:53;;;;;;;22.52;5.72;;;1.10;99.90;;;;;;5065376;28;20027;-42
2021/12/20 02:47:28;;;;;;;24.83;5.22;;;1.10;99.90;;;;;;5067195;28;20428;-42
2021/12/20 02:49:55;;;;;;;19.60;5.80;;;1.10;99.90;;;;;;5067797;28;20127;-43
2021/12/20 02:52:20;;;;;;;32.75;7.25;;;1.10;99.90;;;;;;5077903;28;20020;-42
2021/12/20 02:54:46;;;;;;;26.70;5.55;;;1.10;99.90;;;;;;5077626;28;20031;-43
2021/12/20 02:57:11;;;;;;;23.00;4.68;;;1.00;99.90;;;;;;5075870;28;20043;-43
2021/12/20 02:59:37;;;;;;;24.00;5.57;;;1.00;99.90;;;;;;5071361;28;20029;-43
2021/12/20 03:02:06;;;;;;;23.00;5.22;;;1.00;99.90;;;;;;5073669;28;20500;-42
2021/12/20 03:04:32;;;;;;;21.92;4.93;;;1.00;99.90;;;;;;5066763;28;20233;-42
2021/12/20 03:07:02;;;;;;;21.83;4.90;;;1.00;99.90;;;;;;5067752;28;20078;-44
2021/12/20 03:09:33;;;;;;;23.08;6.00;;;1.00;99.90;;;;;;5077601;28;20024;-44
2021/12/20 03:12:00;;;;;;;26.70;6.45;;;0.90;99.90;;;;;;5067623;28;20017;-43
2021/12/20 03:14:32;;;;;;;17.88;5.28;;;0.90;99.90;;;;;;5080815;28;20070;-43
2021/12/20 03:16:59;;;;;;;18.73;5.22;;;1.00;99.90;;;;;;5069851;28;20586;-44
2021/12/20 03:19:25;;;;;;;22.45;4.75;;;1.00;99.90;;;;;;5074455;28;20111;-43
2021/12/20 03:21:51;;;;;;;25.15;6.47;;;0.90;99.90;;;;;;5074592;28;20032;-43
2021/12/20 03:24:17;;;;;;;17.48;5.03;;;0.90;99.90;;;;;;5079266;28;20028;-43
2021/12/20 03:26:43;;;;;;;24.65;5.88;;;0.90;99.90;;;;;;5081249;28;20036;-43
2021/12/20 03:29:08;;;;;;;18.20;4.78;;;0.90;99.90;;;;;;5077662;28;20021;-43
2021/12/20 03:31:34;;;;;;;25.05;5.05;;;0.80;99.90;;;;;;5082562;28;20439;-44
2021/12/20 03:34:00;;;;;;;26.73;5.22;;;0.80;99.90;;;;;;5076689;28;20070;-43
2021/12/20 03:36:26;;;;;;;31.20;6.25;;;0.80;99.90;;;;;;5085225;28;20063;-44
2021/12/20 03:38:52;;;;;;;23.83;5.32;;;0.80;99.90;;;;;;5078144;28;20037;-43
2021/12/20 03:41:18;;;;;;;29.27;5.13;;;0.80;99.90;;;;;;5091423;28;20475;-46
2021/12/20 03:43:43;;;;;;;22.52;6.03;;;0.80;99.90;;;;;;5084484;28;20020;-44
2021/12/20 03:46:09;;;;;;;34.80;5.28;;;0.80;99.90;;;;;;5081694;28;20024;-43
2021/12/20 03:48:35;;;;;;;22.85;4.28;;;0.70;99.90;;;;;;5083414;28;20054;-43
2021/12/20 03:51:02;;;;;;;24.02;4.82;;;0.80;99.90;;;;;;5077683;28;20012;-43
2021/12/20 03:53:30;;;;;;;27.92;7.68;;;0.80;99.90;;;;;;5082659;28;20373;-43
2021/12/20 03:55:55;;;;;;;29.65;5.40;;;0.80;99.90;;;;;;5081454;28;20473;-43
2021/12/20 03:58:22;;;;;;;13.48;3.95;;;0.70;99.90;;;;;;5082706;28;20084;-43
2021/12/20 04:00:49;;;;;;;18.08;4.60;;;0.70;99.90;;;;;;5086148;28;20026;-43
2021/12/20 04:03:15;;;;;;;24.40;4.93;;;0.70;99.90;;;;;;5082427;28;20485;-44
2021/12/20 04:05:41;;;;;;;24.65;4.65;;;0.70;99.90;;;;;;5086922;28;20024;-43
2021/12/20 04:08:07;;;;;;;28.08;5.35;;;0.70;99.90;;;;;;5080615;28;20454;-43
2021/12/20 04:10:33;;;;;;;27.98;5.28;;;0.60;99.90;;;;;;5090829;28;20035;-44
2021/12/20 04:12:59;;;;;;;23.77;4.57;;;0.60;99.90;;;;;;5079480;28;20017;-43
2021/12/20 04:15:24;;;;;;;21.50;5.20;;;0.50;99.90;;;;;;5090627;28;20028;-44
2021/12/20 04:17:50;;;;;;;22.15;5.05;;;0.50;99.90;;;;;;5084690;28;20108;-44
2021/12/20 04:20:16;;;;;;;20.90;4.75;;;0.60;99.90;;;;;;5082453;28;20032;-42
2021/12/20 04:22:41;;;;;;;15.20;4.05;;;0.50;99.90;;;;;;5103383;28;20028;-44
2021/12/20 04:25:07;;;;;;;26.63;4.22;;;0.50;99.90;;;;;;5082053;28;20028;-43
2021/12/20 04:27:33;;;;;;;26.55;4.40;;;0.60;99.90;;;;;;5089712;28;20170;-43
2021/12/20 04:29:58;;;;;;;22.42;4.43;;;0.50;99.90;;;;;;5081555;28;20059;-43
2021/12/20 04:32:24;;;;;;;24.92;4.65;;;0.50;99.90;;;;;;5083151;28;20020;-43
2021/12/20 04:34:49;;;;;;;24.65;4.85;;;0.50;99.90;;;;;;5084524;28;20027;-43
2021/12/20 04:37:15;;;;;;;28.35;4.72;;;0.50;99.90;;;;;;5080936;28;20032;-43
2021/12/20 04:39:41;;;;;;;23.05;4.57;;;0.50;99.90;;;;;;5087780;28;20028;-43
2021/12/20 04:42:08;;;;;;;20.23;4.90;;;0.50;99.90;;;;;;5080422;28;20349;-43
2021/12/20 04:44:34;;;;;;;17.10;4.03;;;0.50;99.90;;;;;;5090355;28;20058;-43
2021/12/20 04:47:00;;;;;;;25.92;6.13;;;0.50;99.90;;;;;;5079236;28;20017;-42
2021/12/20 04:49:25;;;;;;;21.08;4.65;;;0.50;99.90;;;;;;5088134;28;20428;-43
2021/12/20 04:51:53;;;;;;;19.80;4.65;;;0.50;99.90;;;;;;5083639;28;20024;-42
2021/12/20 04:54:18;;;;;;;19.38;4.55;;;0.50;99.90;;;;;;5074217;28;20372;-42
2021/12/20 04:56:44;;;;;;;18.52;5.05;;;0.50;99.90;;;;;;5076392;28;20036;-43
2021/12/20 04:59:09;;;;;;;21.80;4.93;;;0.40;99.90;;;;;;5088131;28;20028;-43
2021/12/20 05:01:35;;;;;;;18.90;4.93;;;0.40;99.90;;;;;;5080091;28;20089;-43
2021/12/20 05:04:00;;;;;;;32.08;5.63;;;0.40;99.90;;;;;;5087627;28;20088;-43
2021/12/20 05:06:26;;;;;;;17.00;3.97;;;0.40;99.90;;;;;;5083053;28;20035;-43
2021/12/20 05:08:55;;;;;;;28.65;5.25;;;0.40;99.90;;;;;;5080266;28;20047;-44
2021/12/20 05:11:21;;;;;;;29.17;4.35;;;0.40;99.90;;;;;;5082934;28;20062;-42
2021/12/20 05:13:47;;;;;;;29.05;5.95;;;0.40;99.90;;;;;;5081114;28;20416;-42
2021/12/20 05:16:13;;;;;;;21.77;4.50;;;0.40;99.90;;;;;;5083383;28;20016;-43
2021/12/20 05:18:39;;;;;;;20.88;4.70;;;0.30;99.90;;;;;;5080284;28;20020;-42
2021/12/20 05:21:04;;;;;;;22.75;5.15;;;0.30;99.90;;;;;;5085057;28;20035;-43
2021/12/20 05:23:30;;;;;;;25.15;6.45;;;0.30;99.90;;;;;;5078912;28;20114;-42
2021/12/20 05:25:56;;;;;;;22.08;4.63;;;0.30;99.90;;;;;;5086112;28;20040;-42
2021/12/20 05:28:22;;;;;;;21.25;4.57;;;0.30;99.90;;;;;;5079838;28;20020;-43
2021/12/20 05:30:50;;;;;;;31.15;5.63;;;0.20;99.90;;;;;;5080403;28;20016;-42
2021/12/20 05:33:16;;;;;;;30.52;5.68;;;0.20;99.90;;;;;;5080287;28;20020;-42
2021/12/20 05:35:43;;;;;;;23.05;4.40;;;0.20;99.90;;;;;;5080617;28;20024;-42
2021/12/20 05:38:08;;;;;;;32.17;5.88;;;0.10;99.90;;;;;;5070611;28;20107;-42
2021/12/20 05:40:35;;;;;;;23.05;5.35;;;0.20;99.90;;;;;;5072938;28;20486;-42
2021/12/20 05:43:01;;;;;;;14.98;5.78;;;0.20;99.90;;;;;;5080408;28;20091;-42
2021/12/20 05:45:26;;;;;;;21.30;6.13;;;0.10;99.90;;;;;;5083267;28;20031;-42
2021/12/20 05:47:52;;;;;;;24.38;4.95;;;0.10;99.90;;;;;;5079623;28;20474;-43
2021/12/20 05:50:20;;;;;;;25.15;6.13;;;0.10;99.90;;;;;;5084430;28;20017;-42
2021/12/20 05:52:46;;;;;;;25.85;5.00;;;0.10;99.90;;;;;;5080067;28;20461;-42
2021/12/20 05:55:13;;;;;;;29.55;5.00;;;0.10;99.90;;;;;;5085155;28;20026;-43
2021/12/20 05:57:39;;;;;;;23.15;4.88;;;0.00;99.90;;;;;;5079455;28;20020;-42
2021/12/20 06:00:09;;;;;;;17.65;4.40;;;0.10;99.90;;;;;;5086204;28;20044;-42
2021/12/20 06:02:34;;;;;;;26.50;5.30;;;0.00;99.90;;;;;;5078518;28;20085;-42
2021/12/20 06:05:00;;;;;;;22.80;5.20;;;0.00;99.90;;;;;;5085370;28;20024;-42
2021/12/20 06:07:25;;;;;;;18.17;5.25;;;0.00;99.90;;;;;;5078913;28;20071;-41
2021/12/20 06:09:51;;;;;;;25.95;5.47;;;0.00;99.90;;;;;;5088546;28;20074;-42
2021/12/20 06:12:17;;;;;;;28.33;5.35;;;0.00;99.90;;;;;;5075086;28;20016;-42
2021/12/20 06:14:42;;;;;;;22.63;5.32;;;0.00;99.90;;;;;;5081935;28;20028;-42
2021/12/20 06:17:08;;;;;;;21.20;5.65;;;0.00;99.90;;;;;;5077505;28;20453;-42
2021/12/20 06:19:34;;;;;;;16.33;4.78;;;0.00;99.90;;;;;;5076510;28;20031;-42
2021/12/20 06:21:59;;;;;;;24.08;5.57;;;0.00;99.90;;;;;;5076540;28;20016;-43
2021/12/20 06:24:26;;;;;;;21.33;6.38;;;0.00;99.90;;;;;;5067278;28;20032;-43
2021/12/20 06:26:52;;;;;;;22.23;6.00;;;0.00;99.90;;;;;;5076273;28;20027;-42
2021/12/20 06:29:19;;;;;;;22.13;4.93;;;0.00;99.90;;;;;;5085147;28;20024;-42
2021/12/20 06:31:45;;;;;;;17.80;4.82;;;-0.10;99.90;;;;;;5075928;28;20056;-42
2021/12/20 06:34:11;;;;;;;18.55;4.60;;;-0.10;99.90;;;;;;5087192;28;20048;-43
2021/12/20 06:36:36;;;;;;;22.60;4.82;;;0.00;99.90;;;;;;5078734;28;20029;-43
2021/12/20 06:39:03;;;;;;;25.42;5.80;;;-0.10;99.90;;;;;;5084953;28;20278;-43
2021/12/20 06:41:29;;;;;;;32.22;6.45;;;-0.10;99.90;;;;;;5080997;28;20025;-42
2021/12/20 06:43:54;;;;;;;24.90;5.80;;;-0.10;99.90;;;;;;5084352;28;20039;-43
2021/12/20 06:46:21;;;;;;;17.92;5.18;;;-0.10;99.90;;;;;;5082189;28;20474;-43
2021/12/20 06:48:47;;;;;;;19.60;7.05;;;-0.10;99.90;;;;;;5082482;28;20103;-42
2021/12/20 06:51:12;;;;;;;24.10;7.07;;;-0.10;99.90;;;;;;5080052;28;20077;-43
2021/12/20 06:53:38;;;;;;;18.13;5.45;;;-0.10;99.90;;;;;;5078825;28;20522;-43
2021/12/20 06:56:04;;;;;;;29.75;7.28;;;-0.20;99.90;;;;;;5085368;28;20532;-47
2021/12/20 06:58:29;;;;;;;20.27;8.05;;;-0.10;99.90;;;;;;5077188;28;20195;-47
2021/12/20 07:00:55;;;;;;;35.80;7.80;;;-0.10;99.90;;;;;;5087506;28;20466;-48
2021/12/20 07:03:21;;;;;;;32.20;6.85;;;-0.20;99.90;;;;;;5080129;28;20417;-47
2021/12/20 07:05:47;;;;;;;21.80;7.03;;;-0.20;99.90;;;;;;5075815;28;20291;-47
2021/12/20 07:08:13;;;;;;;20.83;5.85;;;-0.20;99.90;;;;;;5079845;28;20036;-47
2021/12/20 07:10:39;;;;;;;23.17;5.43;;;-0.20;99.90;;;;;;5068178;28;20028;-47
2021/12/20 07:13:05;;;;;;;21.10;6.18;;;-0.20;99.90;;;;;;5068848;28;20166;-46
2021/12/20 07:15:32;;;;;;;19.60;5.75;;;-0.20;99.90;;;;;;5069825;28;20027;-46
2021/12/20 07:17:58;;;;;;;24.52;6.80;;;-0.20;99.90;;;;;;5068472;28;20494;-46
2021/12/20 07:20:24;;;;;;;29.50;6.30;;;-0.20;99.90;;;;;;5070339;28;20191;-47
2021/12/20 07:22:50;;;;;;;27.17;6.50;;;-0.20;99.90;;;;;;5073649;28;20023;-46
2021/12/20 07:25:15;;;;;;;20.35;5.68;;;-0.20;99.90;;;;;;5070002;28;20167;-47
2021/12/20 07:27:41;;;;;;;19.40;5.70;;;-0.20;99.90;;;;;;5068463;28;20486;-46
2021/12/20 07:30:07;;;;;;;21.83;5.88;;;-0.20;99.90;;;;;;5070396;28;20025;-47
2021/12/20 07:32:32;;;;;;;26.90;5.95;;;-0.20;99.90;;;;;;5070594;28;20012;-47
2021/12/20 07:34:58;;;;;;;20.42;5.95;;;-0.30;99.90;;;;;;5072753;28;20069;-48
2021/12/20 07:37:26;;;;;;;26.35;6.07;;;-0.30;99.90;;;;;;5076094;28;20036;-47
2021/12/20 07:39:52;;;;;;;25.90;6.53;;;-0.20;99.90;;;;;;5074921;28;20468;-46
2021/12/20 07:42:18;;;;;;;23.50;6.38;;;-0.30;99.90;;;;;;5073701;28;20106;-47
2021/12/20 07:44:44;;;;;;;19.20;6.43;;;-0.30;99.90;;;;;;5068491;28;20023;-47
2021/12/20 07:47:09;;;;;;;17.52;6.10;;;-0.30;99.90;;;;;;5073813;28;20107;-47
2021/12/20 07:49:35;;;;;;;22.42;5.75;;;-0.30;99.90;;;;;;5076796;28;20046;-47
2021/12/20 07:52:01;;;;;;;16.77;5.43;;;-0.20;99.90;;;;;;5078115;28;20478;-48
2021/12/20 07:54:27;;;;;;;21.48;5.53;;;-0.30;99.90;;;;;;5079366;28;20032;-47
2021/12/20 07:56:52;;;;;;;14.18;5.78;;;-0.30;99.90;;;;;;5079751;28;20390;-46
2021/12/20 07:59:18;;;;;;;21.33;6.13;;;-0.30;99.90;;;;;;5077017;28;20108;-46
2021/12/20 08:01:43;;;;;;;20.85;7.20;;;-0.30;99.90;;;;;;5073990;28;20058;-46
2021/12/20 08:04:09;;;;;;;16.27;6.25;;;-0.20;99.90;;;;;;5075844;28;20032;-46
2021/12/20 08:06:35;;;;;;;14.43;5.38;;;-0.20;99.90;;;;;;5069113;28;20029;-47
2021/12/20 08:09:01;;;;;;;23.00;6.78;;;-0.20;99.90;;;;;;5078832;28;20038;-48
2021/12/20 08:11:26;;;;;;;18.38;5.93;;;-0.20;99.90;;;;;;5073730;28;20024;-49
2021/12/20 08:13:52;;;;;;;22.48;5.93;;;-0.20;99.90;;;;;;5071958;28;20050;-47
2021/12/20 08:16:19;;;;;;;19.13;5.50;;;-0.20;99.90;;;;;;5057770;28;20090;-47
2021/12/20 08:18:46;;;;;;;20.27;6.47;;;-0.20;99.90;;;;;;5058227;28;20040;-48
2021/12/20 08:21:14;;;;;;;20.88;7.22;;;-0.20;99.90;;;;;;5046557;28;20463;-48
2021/12/20 08:23:40;;;;;;;19.80;6.50;;;-0.20;99.90;;;;;;5064101;28;20119;-50
2021/12/20 08:26:07;;;;;;;28.30;9.57;;;-0.10;99.90;;;;;;5072324;28;20046;-49
2021/12/20 08:28:35;;;;;;;20.40;6.18;;;-0.10;99.90;;;;;;5074437;28;20032;-49
2021/12/20 08:31:01;;;;;;;30.77;7.00;;;-0.10;99.90;;;;;;5081899;28;20023;-49
2021/12/20 08:33:27;;;;;;;21.80;6.07;;;-0.10;99.90;;;;;;5086079;28;20493;-50
2021/12/20 08:35:53;;;;;;;14.73;6.22;;;-0.10;99.90;;;;;;5081720;28;20066;-48
2021/12/20 08:38:19;;;;;;;23.70;7.40;;;0.00;99.90;;;;;;5089349;28;20437;-48
2021/12/20 08:40:46;;;;;;;16.17;5.63;;;0.00;99.90;;;;;;5082495;28;20479;-49
2021/12/20 08:43:12;;;;;;;13.98;5.78;;;0.00;99.90;;;;;;5081627;28;20455;-47
2021/12/20 08:45:38;;;;;;;19.95;5.97;;;0.00;99.90;;;;;;5090241;28;20062;-47
2021/12/20 08:48:03;;;;;;;20.45;6.45;;;0.10;99.90;;;;;;5089834;28;20051;-49
2021/12/20 08:50:29;;;;;;;16.52;5.75;;;0.10;99.90;;;;;;5089634;28;20456;-46
2021/12/20 08:52:55;;;;;;;16.80;5.35;;;0.10;99.90;;;;;;5088672;28;20025;-50
2021/12/20 08:55:22;;;;;;;19.08;7.40;;;0.10;99.90;;;;;;5089099;28;20032;-48
2021/12/20 08:57:48;;;;;;;13.18;4.35;;;0.20;99.90;;;;;;5088981;28;20016;-48
2021/12/20 09:00:18;;;;;;;19.63;5.57;;;0.20;99.90;;;;;;5090992;28;20042;-48
2021/12/20 09:02:43;;;;;;;13.03;5.77;;;0.20;99.90;;;;;;5090723;28;20081;-50
2021/12/20 09:05:09;;;;;;;14.05;5.18;;;0.30;99.90;;;;;;5090750;28;20478;-49
2021/12/20 09:07:36;;;;;;;15.80;4.65;;;0.30;99.90;;;;;;5090089;28;20028;-48
2021/12/20 09:10:03;;;;;;;18.55;5.15;;;0.30;99.90;;;;;;5083954;28;20378;-49
2021/12/20 09:12:28;;;;;;;11.45;4.80;;;0.40;99.90;;;;;;5081230;28;20020;-47
2021/12/20 09:14:54;;;;;;;16.70;5.75;;;0.40;99.90;;;;;;5077334;28;20697;-49
2021/12/20 09:17:19;;;;;;;14.90;5.70;;;0.40;99.90;;;;;;5067878;28;20447;-49
2021/12/20 09:19:45;;;;;;;15.77;5.55;;;0.50;99.90;;;;;;5056483;28;20029;-47
2021/12/20 09:22:11;;;;;;;16.65;6.05;;;0.50;99.90;;;;;;5069673;28;20037;-48
2021/12/20 09:24:38;;;;;;;14.90;4.68;;;0.50;99.90;;;;;;5070488;28;20139;-49
2021/12/20 09:27:06;;;;;;;14.50;4.53;;;0.60;99.90;;;;;;5067642;28;20025;-47
2021/12/20 09:29:32;;;;;;;15.68;4.97;;;0.60;99.90;;;;;;5067391;28;20028;-47
2021/12/20 09:31:58;;;;;;;18.60;5.25;;;0.60;99.90;;;;;;5068636;28;20124;-47
2021/12/20 09:34:24;;;;;;;14.13;5.57;;;0.70;99.90;;;;;;5068222;28;20029;-47
2021/12/20 09:36:51;;;;;;;17.13;4.72;;;0.70;99.90;;;;;;5068092;28;20027;-49
2021/12/20 09:39:18;;;;;;;18.48;5.57;;;0.70;99.90;;;;;;5068214;28;20039;-47
2021/12/20 09:44:11;;;;;;;16.33;6.57;;;0.80;99.90;;;;;;5079979;28;20111;-47
2021/12/20 09:46:39;;;;;;;20.23;5.65;;;0.80;99.90;;;;;;5088297;28;20107;-47
2021/12/20 09:49:06;;;;;;;15.40;5.70;;;0.90;99.90;;;;;;5087670;28;20473;-47
2021/12/20 09:51:32;;;;;;;12.70;4.82;;;0.90;99.90;;;;;;5088038;28;20048;-47
2021/12/20 09:53:58;;;;;;;15.75;6.28;;;0.90;99.90;;;;;;5088619;28;20024;-47
2021/12/20 09:56:26;;;;;;;15.52;4.68;;;1.10;99.90;;;;;;5084373;28;20030;-47
2021/12/20 09:58:53;;;;;;;19.83;5.68;;;1.00;99.90;;;;;;5075994;28;20030;-48
2021/12/20 10:01:21;;;;;;;14.32;5.15;;;1.10;99.90;;;;;;5088300;28;20024;-48
2021/12/20 10:03:47;;;;;;;13.82;5.15;;;1.10;99.90;;;;;;5088351;28;20028;-48
2021/12/20 10:06:14;;;;;;;16.80;5.30;;;1.20;99.90;;;;;;5088285;28;20511;-48
2021/12/20 10:08:49;;;;;;;16.08;4.78;;;1.20;99.90;;;;;;5084594;28;20029;-47
2021/12/20 10:11:21;;;;;;;20.85;6.40;;;1.20;99.90;;;;;;5065186;28;20032;-44
2021/12/20 10:13:48;;;;;;;20.10;5.50;;;1.30;99.90;;;;;;5076287;28;20119;-42
2021/12/20 10:16:17;;;;;;;18.60;5.30;;;1.30;99.90;;;;;;5074999;28;20393;-43
2021/12/20 10:18:42;;;;;;;19.67;5.20;;;1.40;99.90;;;;;;5066760;28;20115;-42
2021/12/20 10:21:08;;;;;;;18.30;4.88;;;1.40;99.90;;;;;;5054994;28;20451;-44
2021/12/20 10:23:42;;;;;;;15.27;5.65;;;1.50;99.90;;;;;;5067498;28;20039;-44
2021/12/20 10:26:20;;;;;;;21.83;6.00;;;1.50;99.90;;;;;;5065955;28;20028;-42
2021/12/20 10:28:53;;;;;;;13.80;5.22;;;1.50;99.90;;;;;;5073576;28;20024;-42
2021/12/20 10:31:20;;;;;;;13.10;5.18;;;1.70;99.90;;;;;;5068810;28;20027;-42
2021/12/20 10:34:06;;;;;;;17.13;4.95;;;1.80;99.90;;;;;;5074412;28;20334;-42
2021/12/20 10:36:32;;;;;;;11.13;4.88;;;1.90;99.90;;;;;;5066128;28;20047;-42
2021/12/20 10:39:00;;;;;;;18.63;5.72;;;2.00;99.90;;;;;;5065521;28;20020;-42
2021/12/20 10:41:36;;;;;;;12.98;4.78;;;2.10;99.90;;;;;;5065267;28;20100;-42
2021/12/20 10:44:14;;;;;;;14.98;4.45;;;2.40;99.90;;;;;;5065878;28;20013;-43
2021/12/20 10:46:46;;;;;;;11.63;4.00;;;3.60;99.90;;;;;;5080569;28;20086;-43
2021/12/20 10:49:14;;;;;;;10.77;4.05;;;5.40;99.90;;;;;;5068856;28;20035;-44
2021/12/20 10:51:43;;;;;;;14.25;4.03;;;7.00;99.90;;;;;;5094294;28;20328;-43
2021/12/20 10:54:12;;;;;;;8.68;4.13;;;8.30;99.90;;;;;;5087167;28;20024;-44
2021/12/20 10:56:46;;;;;;;10.82;3.85;;;9.50;98.70;;;;;;5077042;28;20040;-46
2021/12/20 10:59:12;;;;;;;8.75;4.13;;;10.10;95.00;;;;;;5092551;28;20393;-44
2021/12/20 11:04:25;;;;;;;9.40;4.25;;;11.30;91.20;;;;;;5087617;28;20512;-44
2021/12/20 11:09:29;;;;;;;10.50;3.97;;;12.00;84.30;;;;;;5102570;28;20031;-45
2021/12/20 11:12:10;;;;;;;6.13;3.50;;;12.10;82.00;;;;;;5085077;28;20004;-47
2021/12/20 11:14:45;;;;;;;6.88;3.35;;;11.20;85.40;;;;;;5081984;28;20031;-45
2021/12/20 11:17:16;;;;;;;7.82;3.92;;;10.10;87.00;;;;;;5087528;28;20029;-44
2021/12/20 11:19:46;;;;;;;9.07;3.78;;;9.00;90.90;;;;;;5087788;28;20024;-46
2021/12/20 11:22:20;;;;;;;6.38;3.47;;;8.10;93.10;;;;;;5087354;28;20036;-48
2021/12/20 11:24:52;;;;;;;9.98;4.03;;;7.30;95.60;;;;;;5087635;28;20028;-50
2021/12/20 11:27:32;;;;;;;8.02;3.70;;;6.40;99.60;;;;;;5086221;28;20028;-49
2021/12/20 11:29:59;;;;;;;8.63;3.83;;;5.90;99.90;;;;;;5085367;28;20067;-48
2021/12/20 11:32:26;;;;;;;9.77;3.90;;;5.40;99.90;;;;;;5075912;28;20029;-48
2021/12/20 11:34:52;;;;;;;14.98;4.65;;;5.10;99.90;;;;;;5083690;28;20399;-49
2021/12/20 11:37:22;;;;;;;9.85;4.45;;;4.90;99.90;;;;;;5083035;28;20049;-51
2021/12/20 11:39:49;;;;;;;16.17;3.92;;;4.60;99.90;;;;;;5066927;28;20055;-48
2021/12/20 11:42:15;;;;;;;11.63;3.90;;;4.40;99.90;;;;;;5069125;28;20028;-50
2021/12/20 11:44:43;;;;;;;14.38;3.53;;;4.30;99.90;;;;;;5067231;28;20129;-48
2021/12/20 11:47:33;;;;;;;8.75;3.40;;;4.10;99.90;;;;;;5065156;28;20027;-51
2021/12/20 11:50:03;;;;;;;10.57;3.55;;;4.10;99.90;;;;;;5066929;28;20022;-48
2021/12/20 11:52:36;;;;;;;8.10;3.92;;;3.90;99.90;;;;;;5066794;28;20021;-48
2021/12/20 11:55:18;;;;;;;10.88;4.05;;;3.90;99.90;;;;;;5067411;28;20033;-48
2021/12/20 11:57:46;;;;;;;11.90;4.13;;;3.80;99.90;;;;;;5071097;28;20016;-48
2021/12/20 12:00:20;;;;;;;11.98;3.95;;;3.70;99.90;;;;;;5079807;28;20035;-48
2021/12/20 12:02:47;;;;;;;16.80;3.78;;;3.70;99.90;;;;;;5090364;28;20170;-48
2021/12/20 12:05:17;;;;;;;15.82;3.50;;;3.70;99.90;;;;;;5090278;28;20024;-48
2021/12/20 12:07:45;;;;;;;10.82;3.78;;;3.70;99.90;;;;;;5089865;28;20028;-48
2021/12/20 12:10:16;;;;;;;9.90;4.13;;;3.70;99.90;;;;;;5091364;28;20036;-49
2021/12/20 12:12:44;;;;;;;7.72;3.72;;;3.60;99.90;;;;;;5090599;28;20032;-48
2021/12/20 12:15:14;;;;;;;12.05;4.10;;;3.60;99.90;;;;;;5105966;28;20023;-51
2021/12/20 12:17:59;;;;;;;8.43;3.33;;;3.60;99.90;;;;;;5090200;28;20051;-47
2021/12/20 12:20:48;;;;;;;13.65;4.40;;;3.50;99.90;;;;;;5090718;28;20535;-47
2021/12/20 12:23:16;;;;;;;12.25;3.55;;;3.50;99.90;;;;;;5090680;28;20500;-47
2021/12/20 12:25:53;;;;;;;14.38;5.10;;;3.50;99.90;;;;;;5090167;28;20149;-48
2021/12/20 12:28:24;;;;;;;7.80;3.67;;;3.50;99.90;;;;;;5079295;28;20028;-48
2021/12/20 12:31:01;;;;;;;11.32;3.60;;;3.50;99.90;;;;;;5086904;28;20021;-48
2021/12/20 12:33:33;;;;;;;9.75;3.78;;;3.50;99.90;;;;;;5090156;28;20410;-48
2021/12/20 12:36:03;;;;;;;13.55;5.20;;;3.50;99.90;;;;;;5090362;28;20085;-48
2021/12/20 12:38:32;;;;;;;12.20;4.07;;;3.40;99.90;;;;;;5091285;28;20454;-47
2021/12/20 12:41:07;;;;;;;9.80;3.47;;;3.50;99.90;;;;;;5090868;28;20122;-48
2021/12/20 12:44:05;;;;;;;13.68;3.50;;;3.50;99.90;;;;;;5084713;28;20081;-48
2021/12/20 12:46:41;;;;;;;10.55;3.22;;;3.50;99.90;;;;;;5082491;28;20082;-48
2021/12/20 12:49:22;;;;;;;14.50;3.75;;;3.50;99.90;;;;;;5089585;28;20028;-48
2021/12/20 12:51:56;;;;;;;11.38;3.67;;;3.50;99.90;;;;;;5088879;28;20027;-48
2021/12/20 12:54:34;;;;;;;11.18;3.92;;;3.40;99.90;;;;;;5088150;28;20024;-48
2021/12/20 12:57:11;;;;;;;11.23;3.85;;;3.40;99.90;;;;;;5079568;28;20692;-50
2021/12/20 12:59:57;;;;;;;9.68;3.10;;;3.40;99.90;;;;;;5087359;28;20435;-48
2021/12/20 13:02:24;;;;;;;12.10;3.30;;;3.40;99.90;;;;;;5091719;28;20035;-50
2021/12/20 13:04:58;;;;;;;10.82;3.60;;;3.50;99.90;;;;;;5070439;28;20122;-49
2021/12/20 13:07:27;;;;;;;13.15;3.88;;;3.40;99.90;;;;;;5070672;28;20054;-49